NCAR-RAP Real-Time Weather Data

Output produced by METARs form (17 September 2019  17:05 UTC)
found at http://weather.rap.ucar.edu/surface/
 
KCNK 171655Z AUTO 19015G27KT 10SM CLR 32/19 A2996 RMK AO2 PK WND 20030/1644 SLP125 T03220194
KCNK 171555Z AUTO 19016G27KT 10SM CLR 30/19 A2997 RMK AO2 PK WND 18028/1543 SLP132 T03000194
KCNK 171455Z AUTO 19017G22KT 10SM CLR 28/19 A2997 RMK AO2 PK WND 17026/1405 SLP132 T02780194 50002
KCNK 171355Z AUTO 18012KT 10SM CLR 26/19 A2998 RMK AO2 SLP135 T02560194
KCNK 171255Z AUTO 17012KT 10SM CLR 24/19 A2998 RMK AO2 SLP135 T02390194
KCNK 171155Z AUTO 18012G25KT 10SM CLR 24/19 A2997 RMK AO2 SLP131 T02390194 10250 20233 53001
KCNK 171055Z AUTO 18014G21KT 10SM CLR 24/19 A2996 RMK AO2 SLP127 T02390194
KCNK 170955Z AUTO 17011KT 10SM CLR 24/19 A2996 RMK AO2 SLP125 T02390194
KCNK 170855Z AUTO 17010KT 10SM CLR 24/20 A2997 RMK AO2 SLP128 T02390200 58001
KCNK 170755Z AUTO 17012KT 10SM CLR 24/20 A2997 RMK AO2 SLP131 T02440200
KCNK 170655Z AUTO 17013KT 10SM CLR 25/20 A2998 RMK AO2 SLP131 T02500200
KCNK 170555Z AUTO 17011G20KT 10SM CLR 25/20 A2997 RMK AO2 SLP129 T02500200 10300 20250 403440228 50002
KCNK 170455Z AUTO 16012KT 10SM CLR 26/19 A2997 RMK AO2 SLP131 T02560194
KCNK 170355Z AUTO 17014G22KT 10SM CLR 27/19 A2997 RMK AO2 SLP130 T02670189
KCNK 170255Z AUTO 16014G22KT 10SM CLR 28/19 A2996 RMK AO2 SLP128 T02780189 53008
KCNK 170055Z AUTO 15010KT 10SM CLR 28/18 A2994 RMK AO2 SLP121 T02830183
KCNK 162355Z AUTO 15008KT 10SM CLR 30/18 A2994 RMK AO2 SLP120 T03000178 10344 20300 56007
KCNK 162255Z AUTO 17012G22KT 10SM CLR 32/17 A2994 RMK AO2 SLP120 T03220167
KCNK 162155Z AUTO 17013G24KT 10SM FEW070 33/17 A2995 RMK AO2 SLP122 T03330172